Time;durP1;ratioP1;P1;durP2;ratioP2;P2;SDS_P1;SDS_P2;PMS_P1;PMS_P2;Temp;Humidity;BMP_temperature;BMP_pressure;BME280_temperature;BME280_humidity;BME280_pressure;Samples;Min_cycle;Max_cycle;Signal;HPM_P1;HPM_P2
2022/11/06 00:01:16;;;;;;;0.30;0.30;;;;;;;9.57;68.33;101081.28;5140233;28;20275;-83
2022/11/06 00:03:46;;;;;;;0.35;0.35;;;;;;;9.62;67.90;101086.47;5149177;28;20121;-82
2022/11/06 00:09:10;;;;;;;0.30;0.30;;;;;;;9.50;67.82;101089.28;5151514;28;20109;-81
2022/11/06 00:11:41;;;;;;;0.38;0.38;;;;;;;9.55;68.46;101087.44;5150451;28;20054;-83
2022/11/06 00:14:12;;;;;;;0.30;0.30;;;;;;;9.49;68.10;101079.69;5121207;28;20639;-84
2022/11/06 00:16:45;;;;;;;0.30;0.30;;;;;;;9.54;68.61;101080.50;5147057;28;20038;-82
2022/11/06 00:19:23;;;;;;;0.35;0.35;;;;;;;9.53;68.41;101077.00;5143532;28;20724;-81
2022/11/06 00:21:53;;;;;;;0.30;0.30;;;;;;;9.52;68.19;101071.78;5139373;28;20043;-82
2022/11/06 00:24:24;;;;;;;0.57;0.57;;;;;;;9.49;68.07;101079.69;5152788;28;20027;-81
2022/11/06 00:26:57;;;;;;;0.70;0.70;;;;;;;9.44;68.04;101075.41;5138290;28;20042;-83
2022/11/06 00:29:29;;;;;;;0.50;0.50;;;;;;;9.47;68.02;101078.84;5137576;28;20539;-83
2022/11/06 00:32:00;;;;;;;0.47;0.47;;;;;;;9.44;68.37;101074.50;5138393;28;20039;-84
2022/11/06 00:34:36;;;;;;;0.40;0.40;;;;;;;9.47;68.17;101074.47;5125156;28;20034;-82
2022/11/06 00:37:06;;;;;;;0.30;0.30;;;;;;;9.45;68.22;101071.91;5135301;28;20043;-82
2022/11/06 00:39:37;;;;;;;0.60;0.55;;;;;;;9.38;68.50;101070.25;5148668;28;20079;-82
2022/11/06 00:42:10;;;;;;;1.05;1.05;;;;;;;9.40;68.27;101063.22;5137650;28;20039;-82
2022/11/06 00:44:43;;;;;;;1.42;0.95;;;;;;;9.42;68.13;101055.38;5138377;28;20926;-82
2022/11/06 00:47:16;;;;;;;0.40;0.40;;;;;;;9.38;68.05;101054.53;5127532;28;20121;-83
2022/11/06 00:49:47;;;;;;;0.68;0.68;;;;;;;9.35;68.43;101054.59;5119828;28;20034;-84
2022/11/06 00:52:17;;;;;;;0.73;0.73;;;;;;;9.31;68.40;101047.66;5148583;28;20055;-82
2022/11/06 00:54:48;;;;;;;0.70;0.70;;;;;;;9.38;68.17;101049.28;5138848;28;20042;-82
2022/11/06 00:57:18;;;;;;;0.40;0.40;;;;;;;9.34;68.33;101036.31;5122266;28;20034;-83
2022/11/06 00:59:49;;;;;;;0.50;0.50;;;;;;;9.30;68.19;101040.69;5135095;28;20034;-82
2022/11/06 01:02:20;;;;;;;0.93;0.93;;;;;;;9.37;67.98;101051.94;5133036;28;20109;-83
2022/11/06 01:04:50;;;;;;;0.30;0.30;;;;;;;9.30;68.16;101045.94;5145602;28;20070;-82
2022/11/06 01:07:23;;;;;;;0.73;0.73;;;;;;;9.27;68.07;101035.53;5129435;28;20070;-81
2022/11/06 01:09:54;;;;;;;2.83;1.75;;;;;;;9.28;68.07;101043.34;5138823;28;20035;-82
2022/11/06 01:12:24;;;;;;;0.43;0.43;;;;;;;9.24;67.94;101040.81;5124933;28;20022;-83
2022/11/06 01:14:57;;;;;;;0.60;0.60;;;;;;;9.22;67.84;101037.34;5142884;28;20014;-84
2022/11/06 01:17:28;;;;;;;0.30;0.30;;;;;;;9.20;67.93;101034.75;5118421;28;20038;-83
2022/11/06 01:19:58;;;;;;;0.47;0.47;;;;;;;9.16;68.11;101038.34;5143747;28;20534;-84
2022/11/06 01:22:29;;;;;;;0.68;0.68;;;;;;;9.12;68.30;101042.75;5163777;28;20062;-83
2022/11/06 01:25:06;;;;;;;1.67;1.08;;;;;;;9.19;68.05;101038.25;5136076;28;20035;-83
2022/11/06 01:27:37;;;;;;;0.73;0.73;;;;;;;9.16;67.93;101029.59;5146505;28;20050;-83
2022/11/06 01:30:08;;;;;;;1.17;0.60;;;;;;;9.08;67.73;101035.81;5135374;28;20043;-83
2022/11/06 01:32:39;;;;;;;1.60;0.50;;;;;;;9.02;68.44;101038.53;5133495;28;20095;-83
2022/11/06 01:35:10;;;;;;;0.35;0.35;;;;;;;9.03;68.44;101037.66;5151482;28;20062;-85
2022/11/06 01:37:41;;;;;;;0.50;0.50;;;;;;;9.07;67.95;101033.25;5125545;28;20057;-83
2022/11/06 01:40:12;;;;;;;0.55;0.55;;;;;;;9.00;68.29;101026.38;5116144;28;20054;-82
2022/11/06 01:42:42;;;;;;;0.40;0.40;;;;;;;9.00;67.96;101027.22;5137262;28;20038;-83
2022/11/06 01:45:25;;;;;;;2.63;1.15;;;;;;;8.94;68.11;101015.09;5115812;28;20038;-81
2022/11/06 01:47:56;;;;;;;0.35;0.35;;;;;;;8.93;68.35;101009.91;5137469;28;20063;-84
2022/11/06 01:50:27;;;;;;;0.30;0.30;;;;;;;8.91;68.59;101014.28;5132575;28;20283;-82
2022/11/06 01:53:01;;;;;;;1.10;0.98;;;;;;;8.96;68.21;101008.09;5146610;28;20054;-83
2022/11/06 01:55:37;;;;;;;0.85;0.85;;;;;;;8.89;68.14;101011.69;5147810;28;20026;-83
2022/11/06 01:58:12;;;;;;;0.60;0.60;;;;;;;8.95;68.15;101010.75;5132781;28;20035;-84
2022/11/06 02:00:43;;;;;;;0.55;0.55;;;;;;;8.89;68.00;101016.03;5139444;28;20042;-83
2022/11/06 02:03:14;;;;;;;0.20;0.20;;;;;;;8.81;68.67;101011.78;5116525;28;20031;-83
2022/11/06 02:05:48;;;;;;;0.30;0.30;;;;;;;8.77;68.86;101014.47;5161902;28;20038;-82
2022/11/06 02:08:21;;;;;;;1.08;0.70;;;;;;;8.79;68.64;101010.97;5144929;28;20042;-83
2022/11/06 02:10:52;;;;;;;0.40;0.40;;;;;;;8.81;68.33;101021.41;5142089;28;20038;-81
2022/11/06 02:13:31;;;;;;;0.70;0.70;;;;;;;8.78;68.72;101017.09;5124788;28;20057;-84
2022/11/06 02:16:18;;;;;;;0.30;0.30;;;;;;;8.82;68.37;101013.53;5135739;28;20023;-82
2022/11/06 02:18:48;;;;;;;1.05;0.95;;;;;;;8.79;68.62;101013.59;5143680;28;20049;-82
2022/11/06 02:21:45;;;;;;;0.88;0.88;;;;;;;8.80;68.64;101011.84;5128106;28;20034;-83
2022/11/06 02:24:24;;;;;;;1.00;1.00;;;;;;;8.81;68.31;101016.19;5135778;28;20035;-83
2022/11/06 02:26:57;;;;;;;0.65;0.65;;;;;;;8.81;68.59;101016.19;5126058;28;20043;-82
2022/11/06 02:29:32;;;;;;;;;;;;;;;8.77;68.74;101009.25;5129590;28;20041;-83
2022/11/06 02:32:11;;;;;;;0.68;0.68;;;;;;;8.78;68.69;101001.41;5149498;28;19950;-82
2022/11/06 02:34:43;;;;;;;0.43;0.43;;;;;;;8.83;68.33;100998.72;5120380;28;20065;-82
2022/11/06 02:37:20;;;;;;;0.43;0.43;;;;;;;8.80;68.33;101004.84;5143322;28;20039;-82
2022/11/06 02:39:53;;;;;;;3.30;1.05;;;;;;;8.83;68.84;100998.72;5129530;28;20039;-83
2022/11/06 02:42:28;;;;;;;0.30;0.30;;;;;;;8.81;68.56;100984.78;5149108;28;20030;-82
2022/11/06 02:45:01;;;;;;;0.30;0.30;;;;;;;8.80;68.61;100977.81;5152688;28;20037;-83
2022/11/06 02:47:33;;;;;;;0.70;0.70;;;;;;;8.84;68.31;100970.78;5148196;28;20039;-85
2022/11/06 02:50:10;;;;;;;0.40;0.40;;;;;;;8.81;68.53;100969.09;5135538;28;20095;-82
2022/11/06 02:53:01;;;;;;;0.40;0.40;;;;;;;8.81;68.66;100975.16;5137120;28;20059;-83
2022/11/06 02:55:56;;;;;;;0.88;0.88;;;;;;;8.82;68.24;100976.91;5125042;28;20145;-82
2022/11/06 02:58:43;;;;;;;0.98;0.88;;;;;;;8.85;68.40;100981.22;5127778;28;20053;-83
2022/11/06 03:01:20;;;;;;;0.30;0.30;;;;;;;8.80;68.49;100972.59;5144045;28;20027;-82
2022/11/06 03:03:56;;;;;;;0.40;0.40;;;;;;;8.82;68.30;100973.44;5145970;28;20065;-82
2022/11/06 03:06:46;;;;;;;0.30;0.30;;;;;;;8.84;68.08;100976.00;5162799;28;20026;-83
2022/11/06 03:09:25;;;;;;;0.63;0.63;;;;;;;8.81;68.16;100963.84;5120405;28;20031;-82
2022/11/06 03:12:09;;;;;;;0.52;0.52;;;;;;;8.79;68.61;100961.28;5159348;28;20038;-84
2022/11/06 03:15:02;;;;;;;0.85;0.85;;;;;;;8.75;68.43;100959.56;5135662;28;20035;-82
2022/11/06 03:18:02;;;;;;;0.60;0.60;;;;;;;8.76;68.53;100956.06;5148589;28;20015;-83
2022/11/06 03:20:51;;;;;;;0.40;0.40;;;;;;;8.78;67.95;100954.31;5106990;28;20041;-83
2022/11/06 03:23:27;;;;;;;0.40;0.40;;;;;;;8.78;68.10;100954.31;5158694;28;20039;-83
2022/11/06 03:26:14;;;;;;;0.47;0.47;;;;;;;8.71;68.29;100965.75;5161439;28;20037;-82
2022/11/06 03:28:52;;;;;;;1.00;0.98;;;;;;;8.65;68.43;100976.28;5125518;28;20073;-81
2022/11/06 03:31:30;;;;;;;0.30;0.30;;;;;;;8.63;68.52;100975.47;5158799;28;20074;-82
2022/11/06 03:34:07;;;;;;;0.30;0.30;;;;;;;8.65;68.33;100978.91;5132392;28;20046;-83
2022/11/06 03:36:58;;;;;;;0.90;0.90;;;;;;;8.70;68.15;100987.56;5123253;28;20042;-84
2022/11/06 03:39:38;;;;;;;0.38;0.38;;;;;;;8.62;68.51;100989.44;5144351;28;20057;-83
2022/11/06 03:42:15;;;;;;;0.30;0.30;;;;;;;8.62;68.29;100986.81;5115285;28;20043;-83
2022/11/06 03:44:51;;;;;;;1.88;0.88;;;;;;;8.60;68.90;100985.97;5159800;28;20043;-83
2022/11/06 03:47:31;;;;;;;0.38;0.38;;;;;;;8.61;68.83;100977.25;5134215;28;20057;-81
2022/11/06 03:50:09;;;;;;;0.38;0.38;;;;;;;8.57;69.06;100989.50;5170966;28;20041;-83
2022/11/06 03:52:48;;;;;;;0.30;0.30;;;;;;;8.51;69.03;100992.22;5133586;28;20055;-82
2022/11/06 03:55:26;;;;;;;0.30;0.30;;;;;;;8.54;68.88;100975.59;5133968;28;20031;-83
2022/11/06 03:58:28;;;;;;;0.30;0.30;;;;;;;8.54;68.97;100980.84;5133187;28;20154;-83
2022/11/06 04:01:03;;;;;;;0.50;0.50;;;;;;;8.60;68.88;100975.50;5125913;28;20085;-82
2022/11/06 04:04:10;;;;;;;0.90;0.77;;;;;;;8.57;68.92;100965.06;5130150;28;20046;-83
2022/11/06 04:07:04;;;;;;;0.55;0.55;;;;;;;8.55;69.10;100961.66;5128153;28;20035;-83
2022/11/06 04:13:56;;;;;;;0.60;0.60;;;;;;;8.56;69.07;100963.34;5157418;28;20039;-82
2022/11/06 04:15:44;;;;;;;0.30;0.30;;;;;;;8.53;69.26;100958.19;5126631;28;20534;-83
2022/11/06 04:18:18;;;;;;;0.30;0.30;;;;;;;8.53;69.44;100959.03;5130860;28;20046;-83
2022/11/06 04:21:26;;;;;;;0.30;0.30;;;;;;;8.46;70.11;100953.00;5130942;28;20177;-83
2022/11/06 04:27:16;;;;;;;0.30;0.30;;;;;;;8.61;69.44;100938.00;5162247;28;20043;-82
2022/11/06 04:29:52;;;;;;;0.30;0.30;;;;;;;8.64;69.26;100935.31;5116763;28;20062;-83
2022/11/06 04:33:06;;;;;;;0.65;0.65;;;;;;;8.64;69.54;100922.25;5147350;28;20133;-82
2022/11/06 04:36:19;;;;;;;0.38;0.38;;;;;;;8.66;69.44;100930.94;5075532;29;20131;-82
2022/11/06 04:39:27;;;;;;;0.40;0.40;;;;;;;8.56;70.78;100922.38;5118836;28;20101;-83
2022/11/06 04:42:07;;;;;;;0.30;0.30;;;;;;;8.54;71.28;100920.69;5134011;28;20458;-83
2022/11/06 04:44:41;;;;;;;0.30;0.30;;;;;;;8.53;70.74;100905.88;5127774;28;20041;-82
2022/11/06 04:47:16;;;;;;;0.40;0.40;;;;;;;8.57;70.25;100897.06;5149254;28;20043;-82
2022/11/06 04:49:49;;;;;;;0.30;0.30;;;;;;;8.62;70.72;100897.88;5158851;28;20593;-83
2022/11/06 04:52:26;;;;;;;0.75;0.75;;;;;;;8.55;71.60;100891.03;5152177;28;20466;-82
2022/11/06 04:54:58;;;;;;;0.30;0.30;;;;;;;8.54;71.40;100881.47;5151427;28;20058;-82
2022/11/06 04:57:28;;;;;;;0.30;0.30;;;;;;;8.57;71.66;100869.19;5144252;28;20038;-83
2022/11/06 05:00:01;;;;;;;1.55;1.25;;;;;;;8.63;70.91;100865.63;5160439;28;20046;-83
2022/11/06 05:02:32;;;;;;;0.30;0.30;;;;;;;8.59;71.05;100866.53;5142847;28;20066;-82
2022/11/06 05:05:03;;;;;;;0.98;0.82;;;;;;;8.63;71.07;100866.47;5139220;28;20097;-83
2022/11/06 05:07:33;;;;;;;0.30;0.30;;;;;;;8.73;71.07;100861.94;5129054;28;20090;-82
2022/11/06 05:10:24;;;;;;;0.30;0.30;;;;;;;8.70;71.54;100856.78;5116142;28;20047;-84
2022/11/06 05:12:58;;;;;;;0.40;0.40;;;;;;;8.56;72.54;100853.50;5151143;28;20102;-83
2022/11/06 05:15:28;;;;;;;0.40;0.40;;;;;;;8.71;71.00;100847.16;5134657;28;20561;-82
2022/11/06 05:17:59;;;;;;;0.40;0.40;;;;;;;8.64;72.83;100841.16;5130703;28;20030;-83
2022/11/06 05:20:30;;;;;;;4.57;2.05;;;;;;;8.62;72.63;100843.81;5143235;28;20510;-82
2022/11/06 05:23:03;;;;;;;1.55;0.77;;;;;;;8.63;72.89;100840.31;5136576;28;20050;-82
2022/11/06 05:25:39;;;;;;;0.32;0.32;;;;;;;8.61;72.55;100833.38;5128362;28;20031;-82
2022/11/06 05:28:09;;;;;;;0.57;0.52;;;;;;;8.63;72.85;100839.47;5147020;23;20189;-81
2022/11/06 05:30:40;;;;;;;0.30;0.30;;;;;;;8.62;72.23;100835.97;5142083;28;20042;-83
2022/11/06 05:33:10;;;;;;;0.30;0.30;;;;;;;8.73;72.04;100830.53;5160664;28;20030;-81
2022/11/06 05:35:41;;;;;;;0.32;0.32;;;;;;;8.70;72.14;100834.97;5139210;28;20037;-81
2022/11/06 05:38:12;;;;;;;0.47;0.47;;;;;;;8.70;72.09;100835.84;5147443;28;20042;-80
2022/11/06 05:40:42;;;;;;;0.40;0.40;;;;;;;8.72;72.89;100828.81;5156396;28;20464;-84
2022/11/06 05:43:13;;;;;;;0.63;0.63;;;;;;;8.60;72.91;100826.41;5128881;28;20031;-84
2022/11/06 05:45:44;;;;;;;0.40;0.40;;;;;;;8.63;72.57;100829.00;5118677;28;20042;-84
2022/11/06 05:48:14;;;;;;;0.30;0.30;;;;;;;8.67;72.95;100830.66;5125354;28;20047;-79
2022/11/06 05:50:45;;;;;;;0.32;0.32;;;;;;;8.73;72.33;100827.91;5109431;28;20729;-82
2022/11/06 05:53:18;;;;;;;0.85;0.85;;;;;;;8.74;72.61;100827.03;5120577;28;20053;-82
2022/11/06 05:55:50;;;;;;;0.50;0.50;;;;;;;8.73;72.01;100825.31;5142104;28;20023;-82
2022/11/06 05:58:27;;;;;;;2.17;2.03;;;;;;;8.81;72.19;100833.03;5109263;28;20034;-80
2022/11/06 06:01:08;;;;;;;0.30;0.30;;;;;;;8.75;72.54;100827.91;5151905;28;20103;-83
2022/11/06 06:03:40;;;;;;;0.30;0.30;;;;;;;8.85;71.51;100826.00;5137479;28;20114;-83
2022/11/06 06:06:12;;;;;;;0.40;0.40;;;;;;;8.81;72.02;100823.41;5122680;28;20560;-83
2022/11/06 06:08:46;;;;;;;0.30;0.30;;;;;;;8.76;72.13;100813.94;5127954;28;20045;-82
2022/11/06 06:11:16;;;;;;;0.30;0.30;;;;;;;8.78;72.18;100809.53;5142801;28;20031;-82
2022/11/06 06:13:47;;;;;;;0.47;0.47;;;;;;;8.74;72.08;100808.72;5123137;28;20043;-82
2022/11/06 06:16:17;;;;;;;0.45;0.45;;;;;;;8.79;72.11;100799.06;5128763;28;20061;-81
2022/11/06 06:18:49;;;;;;;0.40;0.40;;;;;;;8.75;71.79;100802.59;5124258;28;20050;-82
2022/11/06 06:21:20;;;;;;;0.30;0.30;;;;;;;8.77;72.68;100799.94;5123447;28;20599;-80
2022/11/06 06:23:53;;;;;;;0.20;0.20;;;;;;;8.81;71.81;100802.47;5127789;28;20315;-84
2022/11/06 06:26:24;;;;;;;;;;;;;;;8.85;71.90;100798.06;5137850;28;20034;-83
2022/11/06 06:28:54;;;;;;;0.65;0.65;;;;;;;8.84;71.88;100804.22;5137021;28;19910;-81
2022/11/06 06:31:25;;;;;;;0.30;0.30;;;;;;;8.80;72.56;100811.22;5126864;28;20035;-84
2022/11/06 06:34:10;;;;;;;0.30;0.30;;;;;;;8.77;72.83;100813.91;5123444;28;20023;-84
2022/11/06 06:36:47;;;;;;;1.45;1.27;;;;;;;8.83;72.61;100812.94;5122162;28;22029;-84
2022/11/06 06:39:20;;;;;;;0.30;0.30;;;;;;;8.86;71.75;100804.16;5120674;28;20034;-84
2022/11/06 06:42:35;;;;;;;0.60;0.60;;;;;;;8.76;72.26;100813.94;5105042;28;20126;-83
2022/11/06 06:45:28;;;;;;;;;;;;;;;;;;;;;
2022/11/06 06:48:02;;;;;;;2.92;2.72;;;;;;;8.77;72.90;100831.34;5171404;23;20154;-85
2022/11/06 06:50:33;;;;;;;0.30;0.30;;;;;;;8.80;72.53;100829.53;5115211;29;20390;-86
2022/11/06 06:53:03;;;;;;;0.30;0.30;;;;;;;8.81;72.56;100828.66;5113615;28;20039;-85
2022/11/06 06:55:33;;;;;;;0.30;0.30;;;;;;;8.81;72.68;100826.03;5115684;28;20063;-86
2022/11/06 06:58:04;;;;;;;0.20;0.20;;;;;;;8.86;72.46;100822.47;5070133;29;20556;-86
2022/11/06 07:00:34;;;;;;;0.47;0.47;;;;;;;8.96;71.69;100824.03;5096626;29;20353;-85
2022/11/06 07:03:05;;;;;;;0.40;0.40;;;;;;;8.90;72.17;100824.13;5098222;29;20035;-87
2022/11/06 07:05:39;;;;;;;0.30;0.30;;;;;;;8.86;72.44;100819.88;5082627;29;20035;-83
2022/11/06 07:08:10;;;;;;;0.30;0.30;;;;;;;8.86;72.40;100822.47;5075822;29;20039;-86
2022/11/06 07:10:40;;;;;;;0.35;0.35;;;;;;;8.87;72.40;100824.22;5097099;29;20517;-85
2022/11/06 07:13:11;;;;;;;0.30;0.30;;;;;;;8.87;72.40;100818.97;5096119;29;20126;-86
2022/11/06 07:15:41;;;;;;;1.13;1.02;;;;;;;8.92;72.43;100818.00;5113169;29;20031;-88
2022/11/06 07:18:12;;;;;;;0.30;0.30;;;;;;;8.88;72.08;100823.31;5091833;29;20090;-85
2022/11/06 07:20:42;;;;;;;0.30;0.30;;;;;;;8.84;72.31;100826.88;5095779;29;20027;-86
2022/11/06 07:23:12;;;;;;;0.55;0.50;;;;;;;8.88;73.48;100831.19;5075623;29;20466;-85
2022/11/06 07:25:43;;;;;;;1.40;1.30;;;;;;;8.87;72.64;100839.91;5112580;29;20454;-86
2022/11/06 07:28:13;;;;;;;0.40;0.40;;;;;;;8.90;72.69;100835.47;5111670;28;20043;-86
2022/11/06 07:30:44;;;;;;;3.72;1.27;;;;;;;8.89;73.06;100836.38;5113501;29;20498;-86
2022/11/06 07:33:14;;;;;;;0.30;0.30;;;;;;;8.93;73.17;100834.56;5078923;29;20031;-86
2022/11/06 07:35:45;;;;;;;0.40;0.40;;;;;;;8.94;73.16;100833.66;5113546;29;20065;-86
2022/11/06 07:38:16;;;;;;;0.30;0.30;;;;;;;8.95;73.36;100825.78;5096826;29;20119;-86
2022/11/06 07:40:46;;;;;;;1.27;0.60;;;;;;;9.00;73.16;100828.31;5112640;29;20035;-86
2022/11/06 07:43:17;;;;;;;0.45;0.45;;;;;;;9.00;73.09;100825.69;5082172;29;20474;-86
2022/11/06 07:45:47;;;;;;;0.30;0.30;;;;;;;8.99;73.41;100821.34;5098243;29;20039;-86
2022/11/06 07:48:17;;;;;;;0.30;0.30;;;;;;;9.08;73.23;100822.94;5094243;29;20036;-86
2022/11/06 07:50:48;;;;;;;0.30;0.30;;;;;;;8.98;74.13;100819.63;5076605;29;20066;-86
2022/11/06 07:53:18;;;;;;;0.30;0.30;;;;;;;8.97;74.01;100817.91;5115275;28;20075;-87
2022/11/06 07:55:50;;;;;;;0.52;0.52;;;;;;;9.00;73.48;100807.38;5117325;29;20202;-86
2022/11/06 07:58:22;;;;;;;0.30;0.30;;;;;;;9.00;74.07;100817.84;5078202;29;20413;-87
2022/11/06 08:00:54;;;;;;;1.17;1.15;;;;;;;9.05;73.66;100808.13;5110834;29;20024;-87
2022/11/06 08:03:26;;;;;;;0.40;0.40;;;;;;;9.11;72.98;100805.44;5115442;29;20035;-87
2022/11/06 08:06:02;;;;;;;0.73;0.57;;;;;;;9.13;73.07;100798.38;5123421;28;20028;-87
2022/11/06 08:08:33;;;;;;;1.08;1.08;;;;;;;9.08;73.33;100800.25;5127031;28;20040;-86
2022/11/06 08:11:05;;;;;;;0.30;0.30;;;;;;;9.04;74.21;100798.59;5100774;29;20032;-87
2022/11/06 08:13:37;;;;;;;0.60;0.60;;;;;;;9.06;73.94;100793.31;5100724;29;20623;-87
2022/11/06 08:16:10;;;;;;;0.30;0.30;;;;;;;9.11;73.72;100808.03;5085543;29;20032;-87
2022/11/06 08:18:40;;;;;;;1.88;1.25;;;;;;;9.16;73.93;100794.88;5101164;29;20036;-88
2022/11/06 08:21:11;;;;;;;2.83;1.25;;;;;;;9.18;74.28;100793.06;5085514;29;20110;-87
2022/11/06 08:23:42;;;;;;;0.30;0.30;;;;;;;9.23;74.00;100799.09;5116510;28;20071;-88
2022/11/06 08:26:12;;;;;;;0.20;0.20;;;;;;;9.27;73.86;100802.50;5099970;29;20103;-87
2022/11/06 08:28:43;;;;;;;0.30;0.30;;;;;;;9.26;74.34;100792.91;5105070;29;20046;-87
2022/11/06 08:31:13;;;;;;;0.30;0.30;;;;;;;9.38;74.05;100792.66;5097239;29;20510;-86
2022/11/06 08:33:44;;;;;;;0.30;0.30;;;;;;;9.39;73.87;100793.53;5100140;29;20043;-85
2022/11/06 08:36:15;;;;;;;0.30;0.30;;;;;;;9.40;74.22;100788.25;5097540;29;20099;-85
2022/11/06 08:38:47;;;;;;;0.30;0.30;;;;;;;9.48;73.76;100781.97;5099173;29;20031;-85
2022/11/06 08:41:17;;;;;;;0.30;0.30;;;;;;;9.53;74.22;100777.53;5101745;29;20031;-86
2022/11/06 08:43:51;;;;;;;0.40;0.40;;;;;;;9.58;74.19;100778.28;5099939;29;20034;-86
2022/11/06 08:46:22;;;;;;;0.20;0.20;;;;;;;9.60;73.85;100768.63;5100548;28;20048;-86
2022/11/06 08:48:52;;;;;;;8.07;1.02;;;;;;;9.69;73.86;100760.56;5099784;29;20043;-87
2022/11/06 08:51:23;;;;;;;0.20;0.20;;;;;;;9.69;73.77;100762.31;5101092;28;20496;-87
2022/11/06 08:53:53;;;;;;;0.60;0.60;;;;;;;9.76;73.84;100756.91;5116001;29;20264;-86
2022/11/06 08:56:27;;;;;;;0.30;0.30;;;;;;;9.86;73.21;100757.53;5097411;29;20055;-85
2022/11/06 08:58:57;;;;;;;0.30;0.30;;;;;;;9.87;73.75;100756.66;5098096;29;20051;-87
2022/11/06 09:01:28;;;;;;;0.50;0.50;;;;;;;9.99;73.19;100763.34;5076594;28;20101;-86
2022/11/06 09:03:58;;;;;;;0.30;0.30;;;;;;;9.99;72.94;100758.13;5095094;29;20059;-86
2022/11/06 09:06:29;;;;;;;0.20;0.20;;;;;;;9.98;73.01;100745.06;5074215;28;20043;-87
2022/11/06 09:08:59;;;;;;;0.30;0.30;;;;;;;10.14;72.84;100749.03;5097844;29;20027;-87
2022/11/06 09:11:31;;;;;;;0.40;0.40;;;;;;;10.23;72.43;100740.94;5096411;28;20027;-87
2022/11/06 09:14:01;;;;;;;0.50;0.50;;;;;;;10.24;72.66;100731.28;5091709;28;20041;-87
2022/11/06 09:16:32;;;;;;;0.30;0.30;;;;;;;10.33;72.75;100732.81;5116237;28;20373;-87
2022/11/06 09:19:03;;;;;;;0.52;0.52;;;;;;;10.29;73.27;100729.41;5096364;29;20040;-87
2022/11/06 09:21:37;;;;;;;0.30;0.30;;;;;;;10.38;73.17;100731.81;5094231;29;20413;-87
2022/11/06 09:24:07;;;;;;;;;;;;;;;10.43;72.99;100721.22;5116667;29;20110;-87
2022/11/06 09:26:37;;;;;;;1.85;1.65;;;;;;;10.46;72.96;100725.50;5095098;29;19918;-88
2022/11/06 09:29:11;;;;;;;1.35;1.25;;;;;;;10.55;72.61;100710.41;5116113;28;20058;-87
2022/11/06 09:31:42;;;;;;;0.30;0.30;;;;;;;10.61;72.80;100706.75;5114712;28;20039;-88
2022/11/06 09:34:13;;;;;;;0.35;0.35;;;;;;;10.69;72.71;100717.91;5101366;29;20027;-88
2022/11/06 09:36:43;;;;;;;0.77;0.77;;;;;;;10.71;71.69;100713.44;5108161;28;20079;-86
2022/11/06 09:39:14;;;;;;;0.43;0.43;;;;;;;10.80;71.19;100712.34;5124738;28;20043;-86
2022/11/06 09:42:11;;;;;;;0.60;0.60;;;;;;;10.82;71.96;100699.16;5139235;28;20048;-87
2022/11/06 09:44:56;;;;;;;0.30;0.30;;;;;;;10.86;70.90;100692.94;5100506;29;20403;-88
2022/11/06 09:47:32;;;;;;;0.68;0.68;;;;;;;10.86;71.33;100691.16;5114969;28;20437;-87
2022/11/06 09:50:10;;;;;;;0.30;0.30;;;;;;;10.94;70.84;100687.44;5096208;29;20038;-88
2022/11/06 09:53:09;;;;;;;0.30;0.30;;;;;;;10.94;70.15;100688.34;5111772;28;20511;-88
2022/11/06 09:55:41;;;;;;;0.20;0.20;;;;;;;10.96;70.26;100691.75;5102173;29;20028;-89
2022/11/06 09:58:12;;;;;;;0.38;0.38;;;;;;;11.00;70.45;100682.00;5097832;28;20039;-88
2022/11/06 10:00:43;;;;;;;0.57;0.57;;;;;;;11.06;70.10;100688.84;5102604;29;20211;-89
2022/11/06 10:03:20;;;;;;;0.20;0.20;;;;;;;11.05;70.09;100682.75;5099353;29;20409;-88
2022/11/06 10:05:52;;;;;;;0.20;0.20;;;;;;;11.15;70.32;100672.81;5101520;29;20031;-88
2022/11/06 10:08:26;;;;;;;0.35;0.35;;;;;;;11.20;70.21;100672.69;5119812;28;20055;-87
2022/11/06 10:11:29;;;;;;;0.35;0.35;;;;;;;11.21;69.73;100667.38;5095254;29;20063;-88
2022/11/06 10:14:24;;;;;;;0.40;0.40;;;;;;;11.26;69.50;100662.88;5073812;29;20039;-87
2022/11/06 10:17:37;;;;;;;0.50;0.50;;;;;;;11.33;69.25;100656.50;5062983;29;20043;-87
2022/11/06 10:20:20;;;;;;;0.57;0.57;;;;;;;11.31;69.00;100654.84;5070493;29;20034;-88
2022/11/06 10:23:04;;;;;;;7.80;1.77;;;;;;;11.40;69.15;100665.06;5067554;29;20389;-88
2022/11/06 10:26:02;;;;;;;0.40;0.40;;;;;;;11.40;69.05;100656.31;5100555;29;20028;-88
2022/11/06 10:28:51;;;;;;;0.30;0.30;;;;;;;11.49;68.95;100656.03;5066830;29;20473;-87
2022/11/06 10:31:30;;;;;;;0.20;0.20;;;;;;;11.44;68.32;100650.06;5115463;28;20203;-87
2022/11/06 10:34:12;;;;;;;0.40;0.40;;;;;;;11.47;68.10;100645.56;5102568;29;20123;-87
2022/11/06 10:36:59;;;;;;;0.30;0.30;;;;;;;11.50;68.14;100636.72;5097854;28;20064;-88
2022/11/06 10:39:33;;;;;;;0.30;0.30;;;;;;;11.55;67.92;100631.31;5100045;29;20098;-87
2022/11/06 10:42:06;;;;;;;;;;;;;;;11.55;67.39;100634.78;5115722;29;20062;-87
2022/11/06 10:44:42;;;;;;;0.40;0.40;;;;;;;11.52;67.44;100629.66;5113699;28;19965;-87
2022/11/06 10:47:35;;;;;;;1.08;0.88;;;;;;;11.58;68.14;100623.31;5077827;29;20055;-88
2022/11/06 10:50:11;;;;;;;0.77;0.77;;;;;;;11.52;67.92;100619.16;5078772;29;20039;-88
2022/11/06 10:53:01;;;;;;;0.30;0.30;;;;;;;11.67;67.84;100616.91;5099565;29;20659;-89
2022/11/06 10:55:47;;;;;;;0.40;0.40;;;;;;;11.66;66.54;100610.78;5100439;29;20536;-88
2022/11/06 10:58:25;;;;;;;0.20;0.20;;;;;;;11.61;66.64;100604.84;5099188;29;20071;-88
2022/11/06 11:01:04;;;;;;;0.30;0.30;;;;;;;11.61;67.22;100603.06;5121566;29;20028;-88
2022/11/06 11:03:40;;;;;;;0.30;0.30;;;;;;;11.69;65.61;100583.56;5100311;29;20046;-88
2022/11/06 11:06:10;;;;;;;0.50;0.50;;;;;;;11.69;66.28;100580.94;5099574;29;20118;-88
2022/11/06 11:08:48;;;;;;;0.77;0.77;;;;;;;11.71;65.77;100579.09;5099569;29;20138;-89
2022/11/06 11:11:22;;;;;;;0.43;0.43;;;;;;;11.69;66.75;100573.06;5116565;29;20032;-86
2022/11/06 11:13:55;;;;;;;0.30;0.30;;;;;;;11.57;65.54;100580.44;5122096;29;20019;-87
2022/11/06 11:16:31;;;;;;;0.30;0.30;;;;;;;11.63;65.78;100568.88;5133183;28;20040;-86
2022/11/06 11:19:24;;;;;;;0.30;0.30;;;;;;;11.64;66.18;100587.19;5070980;29;20413;-88
2022/11/06 11:22:00;;;;;;;0.30;0.30;;;;;;;11.73;66.34;100574.66;5114914;28;20050;-87
2022/11/06 11:24:31;;;;;;;8.27;2.00;;;;;;;11.69;65.82;100568.66;5119541;29;20067;-87
2022/11/06 11:27:05;;;;;;;0.28;0.28;;;;;;;11.75;65.88;100564.94;5110242;29;20525;-88
2022/11/06 11:29:49;;;;;;;0.50;0.50;;;;;;;11.72;65.66;100567.69;5128674;28;20050;-87
2022/11/06 11:32:20;;;;;;;0.60;0.60;;;;;;;11.72;64.52;100558.03;5131499;28;20222;-87
2022/11/06 11:34:54;;;;;;;0.30;0.30;;;;;;;11.84;65.14;100540.09;5113106;29;20034;-87
2022/11/06 11:37:27;;;;;;;0.30;0.30;;;;;;;11.85;65.35;100528.69;5109041;29;20111;-87
2022/11/06 11:40:25;;;;;;;0.40;0.40;;;;;;;11.79;63.68;100522.75;5113376;28;20012;-87
2022/11/06 11:43:34;;;;;;;4.53;0.80;;;;;;;11.85;64.30;100511.16;5136763;28;20040;-87
2022/11/06 11:46:07;;;;;;;0.30;0.30;;;;;;;11.79;64.10;100500.84;5105427;29;20027;-87
2022/11/06 11:48:56;;;;;;;0.50;0.50;;;;;;;11.87;63.40;100475.13;5120636;28;20047;-87
2022/11/06 11:51:35;;;;;;;0.40;0.40;;;;;;;12.01;64.21;100474.66;5136765;28;20109;-87
2022/11/06 11:54:12;;;;;;;1.98;0.52;;;;;;;11.96;65.02;100463.44;5108813;28;20512;-87
2022/11/06 11:57:04;;;;;;;0.88;0.65;;;;;;;12.01;64.30;100465.94;5104526;28;20122;-87
2022/11/06 11:59:48;;;;;;;0.30;0.30;;;;;;;11.96;62.95;100456.38;5110640;28;20088;-87
2022/11/06 12:02:30;;;;;;;1.17;1.08;;;;;;;12.01;63.85;100460.66;5113464;29;20055;-88
2022/11/06 12:05:12;;;;;;;0.28;0.28;;;;;;;12.01;63.66;100458.03;5126853;28;20024;-86
2022/11/06 12:07:47;;;;;;;2.55;2.08;;;;;;;12.04;64.03;100450.00;5096399;29;20034;-87
2022/11/06 12:10:24;;;;;;;3.13;1.65;;;;;;;12.07;63.68;100448.13;5100354;28;20019;-87
2022/11/06 12:12:56;;;;;;;0.38;0.38;;;;;;;12.07;63.07;100436.75;5136820;28;20099;-88
2022/11/06 12:15:37;;;;;;;0.77;0.77;;;;;;;12.07;63.01;100440.22;5139318;28;20113;-88
2022/11/06 12:18:15;;;;;;;0.77;0.77;;;;;;;12.16;63.81;100446.06;5071538;28;20020;-87
2022/11/06 12:20:56;;;;;;;0.25;0.25;;;;;;;12.19;64.00;100452.06;5084165;29;20065;-88
2022/11/06 12:23:26;;;;;;;0.63;0.63;;;;;;;12.13;65.11;100441.78;5070197;29;20498;-89
2022/11/06 12:26:24;;;;;;;0.80;0.80;;;;;;;12.19;65.68;100428.38;5098707;29;20035;-89